Track Масный Дмитрий

Time Latitude Longitude Accuracy (66% radius in meters) Altitude (meters) Speed (km/hour) Bearing (degrees) Battery (%) GPS flag
06:47:03 57.203973 60.118158 0 0 0 0 1 delete
06:47:02 57.203977 60.118143 0 0 0 0 1 delete
06:47:01 57.203985 60.118128 0 0 0 0 1 delete
06:47:00 57.204010 60.118087 0 0 0 0 1 delete
06:46:59 57.204040 60.118038 0 0 0 0 1 delete
06:46:58 57.204072 60.117995 0 0 0 0 1 delete
06:46:57 57.204103 60.117943 0 0 0 0 1 delete
06:46:56 57.204130 60.117892 0 0 0 0 1 delete
06:46:55 57.204160 60.117833 0 0 0 0 1 delete
06:46:54 57.204193 60.117782 0 0 0 0 1 delete
06:46:53 57.204230 60.117737 0 0 0 0 1 delete
06:46:52 57.204262 60.117700 0 0 0 0 1 delete
06:46:51 57.204287 60.117653 0 0 0 0 1 delete
06:46:50 57.204323 60.117610 0 0 0 0 1 delete
06:46:49 57.204363 60.117560 0 0 0 0 1 delete
06:46:48 57.204398 60.117517 0 0 0 0 1 delete
06:46:47 57.204433 60.117472 0 0 0 0 1 delete
06:46:46 57.204470 60.117438 0 0 0 0 1 delete
06:46:45 57.204508 60.117408 0 0 0 0 1 delete
06:46:44 57.204557 60.117393 0 0 0 0 1 delete
06:46:43 57.204605 60.117385 0 0 0 0 1 delete
06:46:42 57.204658 60.117390 0 0 0 0 1 delete
06:46:41 57.204705 60.117397 0 0 0 0 1 delete
06:46:40 57.204757 60.117408 0 0 0 0 1 delete
06:46:39 57.204800 60.117423 0 0 0 0 1 delete
06:46:38 57.204842 60.117448 0 0 0 0 1 delete
06:46:37 57.204885 60.117468 0 0 0 0 1 delete
06:46:36 57.204922 60.117492 0 0 0 0 1 delete
06:46:35 57.204957 60.117508 0 0 0 0 1 delete
06:46:34 57.204993 60.117528 0 0 0 0 1 delete
06:46:33 57.205032 60.117535 0 0 0 0 1 delete
06:46:32 57.205058 60.117558 0 0 0 0 1 delete
06:46:31 57.205085 60.117597 0 0 0 0 1 delete
06:46:30 57.205108 60.117635 0 0 0 0 1 delete
06:46:29 57.205123 60.117667 0 0 0 0 1 delete
06:46:28 57.205127 60.117693 0 0 0 0 1 delete
06:46:27 57.205123 60.117707 0 0 0 0 1 delete
06:46:26 57.205123 60.117723 0 0 0 0 1 delete
06:46:25 57.205122 60.117717 0 0 0 0 1 delete
06:46:24 57.205125 60.117678 0 0 0 0 1 delete
06:46:23 57.205133 60.117643 0 0 0 0 1 delete
06:46:22 57.205138 60.117600 0 0 0 0 1 delete
06:46:21 57.205145 60.117558 0 0 0 0 1 delete
06:46:20 57.205150 60.117515 0 0 0 0 1 delete
06:46:19 57.205158 60.117467 0 0 0 0 1 delete
06:46:18 57.205158 60.117415 0 0 0 0 1 delete
06:46:17 57.205153 60.117368 0 0 0 0 1 delete
06:46:16 57.205145 60.117320 0 0 0 0 1 delete
06:46:15 57.205145 60.117268 0 0 0 0 1 delete
06:46:14 57.205143 60.117223 0 0 0 0 1 delete